Time;durP1;ratioP1;P1;durP2;ratioP2;P2;SDS_P1;SDS_P2;PMS_P1;PMS_P2;Temp;Humidity;BMP_temperature;BMP_pressure;BME280_temperature;BME280_humidity;BME280_pressure;Samples;Min_cycle;Max_cycle;Signal;HPM_P1;HPM_P2
2022/09/18 00:01:43;;;;;;;5.38;1.40;;;;;;;;;;5052123;28;20024;-73
2022/09/18 00:04:11;;;;;;;5.38;1.25;;;;;;;;;;5052266;28;20047;-73
2022/09/18 00:06:39;;;;;;;4.18;1.20;;;;;;;;;;5052114;28;20009;-73
2022/09/18 00:09:07;;;;;;;2.28;1.17;;;;;;;;;;5051290;28;20498;-72
2022/09/18 00:11:35;;;;;;;2.28;1.00;;;;;;;;;;5051884;28;20561;-72
2022/09/18 00:14:01;;;;;;;7.47;2.00;;;;;;;;;;5051974;28;20150;-72
2022/09/18 00:16:27;;;;;;;2.55;1.02;;;;;;;;;;5051748;28;20471;-72
2022/09/18 00:18:53;;;;;;;1.60;1.00;;;;;;;;;;5051176;28;20021;-71
2022/09/18 00:21:22;;;;;;;3.63;1.05;;;;;;;;;;5051599;28;20036;-72
2022/09/18 00:23:48;;;;;;;3.45;1.02;;;;;;;;;;5051660;28;20383;-72
2022/09/18 00:26:15;;;;;;;2.38;0.93;;;;;;;;;;5051588;28;20087;-72
2022/09/18 00:28:41;;;;;;;4.20;1.17;;;;;;;;;;5050926;28;20031;-74
2022/09/18 00:31:28;;;;;;;2.95;1.50;;;;;;;;;;5051501;28;20020;-74
2022/09/18 00:33:55;;;;;;;2.20;1.40;;;;;;;;;;5051932;28;20036;-72
2022/09/18 00:36:21;;;;;;;4.80;1.77;;;;;;;;;;5051440;28;20024;-73
2022/09/18 00:38:47;;;;;;;4.63;2.22;;;;;;;;;;5051024;28;20029;-73
2022/09/18 00:41:15;;;;;;;3.03;2.08;;;;;;;;;;5051454;28;20032;-73
2022/09/18 00:43:41;;;;;;;6.97;2.50;;;;;;;;;;5051328;28;20029;-74
2022/09/18 00:46:25;;;;;;;9.55;2.80;;;;;;;;;;5051133;28;20052;-74
2022/09/18 00:49:30;;;;;;;7.43;3.00;;;;;;;;;;5050635;28;20417;-73
2022/09/18 00:51:58;;;;;;;8.60;3.83;;;;;;;;;;4998646;28;20419;-74
2022/09/18 00:54:26;;;;;;;11.80;4.00;;;;;;;;;;5008118;28;20033;-73
2022/09/18 00:56:55;;;;;;;13.70;4.75;;;;;;;;;;5030181;28;20045;-73
2022/09/18 00:59:23;;;;;;;13.48;4.40;;;;;;;;;;5050162;28;20163;-72
2022/09/18 01:01:49;;;;;;;8.57;4.63;;;;;;;;;;5050883;28;20108;-70
2022/09/18 01:04:15;;;;;;;6.88;4.13;;;;;;;;;;5050673;28;20070;-73
2022/09/18 01:06:59;;;;;;;10.82;4.40;;;;;;;;;;5051043;28;20025;-73
2022/09/18 01:09:44;;;;;;;13.35;4.50;;;;;;;;;;5050374;28;20434;-73
2022/09/18 01:12:10;;;;;;;10.45;3.92;;;;;;;;;;5049791;28;20067;-73
2022/09/18 01:14:35;;;;;;;10.88;4.00;;;;;;;;;;5050743;28;20049;-73
2022/09/18 01:17:10;;;;;;;6.07;3.85;;;;;;;;;;5050534;28;20028;-74
2022/09/18 01:19:46;;;;;;;8.73;3.83;;;;;;;;;;5050582;28;20100;-74
2022/09/18 01:22:30;;;;;;;7.40;3.85;;;;;;;;;;5049498;28;20032;-74
2022/09/18 01:24:56;;;;;;;6.45;3.42;;;;;;;;;;5037416;28;20025;-73
2022/09/18 01:27:31;;;;;;;7.80;2.75;;;;;;;;;;5050167;28;20098;-71
2022/09/18 01:30:00;;;;;;;11.02;2.75;;;;;;;;;;5051244;28;20032;-72
2022/09/18 01:32:35;;;;;;;5.38;3.00;;;;;;;;;;5050610;28;20025;-74
2022/09/18 01:35:01;;;;;;;10.52;3.67;;;;;;;;;;5038045;28;20078;-74
2022/09/18 01:37:32;;;;;;;6.93;2.78;;;;;;;;;;5050508;28;20047;-73
2022/09/18 01:40:06;;;;;;;5.45;2.60;;;;;;;;;;5051376;28;20029;-73
2022/09/18 01:42:34;;;;;;;4.35;1.80;;;;;;;;;;5051405;28;20441;-73
2022/09/18 01:45:01;;;;;;;4.90;2.85;;;;;;;;;;5050864;28;20064;-73
2022/09/18 01:47:29;;;;;;;4.13;2.67;;;;;;;;;;5050001;28;20503;-72
2022/09/18 01:49:56;;;;;;;6.47;2.70;;;;;;;;;;5051098;28;20025;-72
2022/09/18 01:52:23;;;;;;;5.53;2.47;;;;;;;;;;5051287;28;20033;-71
2022/09/18 01:54:50;;;;;;;6.85;1.95;;;;;;;;;;5050793;28;20033;-74
2022/09/18 01:57:21;;;;;;;7.20;1.90;;;;;;;;;;5050767;28;20021;-73
2022/09/18 01:59:50;;;;;;;2.60;2.15;;;;;;;;;;5050517;28;20115;-70
2022/09/18 02:02:36;;;;;;;6.43;2.60;;;;;;;;;;5057217;28;20083;-75
2022/09/18 02:05:04;;;;;;;8.35;3.25;;;;;;;;;;5050901;28;20029;-73
2022/09/18 02:07:39;;;;;;;7.38;3.28;;;;;;;;;;5051173;28;20556;-73
2022/09/18 02:10:07;;;;;;;4.82;2.70;;;;;;;;;;5054444;28;20021;-75
2022/09/18 02:12:34;;;;;;;8.75;3.38;;;;;;;;;;5054003;28;20028;-75
2022/09/18 02:15:02;;;;;;;8.82;3.78;;;;;;;;;;5054254;28;20399;-74
2022/09/18 02:17:34;;;;;;;7.22;3.55;;;;;;;;;;5052348;28;20124;-74
2022/09/18 02:20:05;;;;;;;8.07;3.30;;;;;;;;;;5041185;28;20025;-72
2022/09/18 02:22:31;;;;;;;;;;;;;;;;;;5054821;28;20079;-75
2022/09/18 02:24:59;;;;;;;7.50;3.08;;;;;;;;;;5053993;28;19912;-75
2022/09/18 02:27:25;;;;;;;8.70;2.90;;;;;;;;;;5052327;28;20025;-75
2022/09/18 02:29:52;;;;;;;10.45;3.30;;;;;;;;;;5054653;28;20429;-75
2022/09/18 02:32:18;;;;;;;5.70;3.45;;;;;;;;;;5054114;28;20092;-75
2022/09/18 02:34:44;;;;;;;4.70;3.53;;;;;;;;;;5054386;28;20025;-75
2022/09/18 02:37:10;;;;;;;3.85;3.03;;;;;;;;;;5054386;28;20120;-73
2022/09/18 02:39:54;;;;;;;3.90;3.28;;;;;;;;;;5055511;28;20108;-76
2022/09/18 02:42:28;;;;;;;5.65;3.28;;;;;;;;;;5052234;28;20055;-74
2022/09/18 02:44:57;;;;;;;10.25;4.05;;;;;;;;;;5052329;28;20036;-74
2022/09/18 02:47:42;;;;;;;6.63;4.47;;;;;;;;;;5050930;28;20025;-77
2022/09/18 02:50:11;;;;;;;4.40;4.00;;;;;;;;;;5039752;28;20021;-75
2022/09/18 02:52:57;;;;;;;7.90;4.68;;;;;;;;;;5049977;28;20029;-76
2022/09/18 02:55:27;;;;;;;5.60;3.90;;;;;;;;;;5050178;28;20017;-77
2022/09/18 02:57:56;;;;;;;15.20;5.72;;;;;;;;;;5050759;28;20025;-75
2022/09/18 03:00:22;;;;;;;12.82;5.70;;;;;;;;;;5052605;28;20448;-72
2022/09/18 03:02:51;;;;;;;12.02;5.50;;;;;;;;;;5053199;28;20051;-77
2022/09/18 03:05:17;;;;;;;19.50;7.00;;;;;;;;;;5052175;28;20056;-77
2022/09/18 03:07:43;;;;;;;22.80;8.15;;;;;;;;;;5052232;28;20032;-77
2022/09/18 03:10:11;;;;;;;18.88;8.65;;;;;;;;;;5051950;28;20025;-75
2022/09/18 03:12:37;;;;;;;22.70;9.13;;;;;;;;;;5051613;28;20025;-76
2022/09/18 03:15:04;;;;;;;22.90;10.27;;;;;;;;;;5053067;28;20036;-75
2022/09/18 03:17:30;;;;;;;28.70;9.50;;;;;;;;;;5051291;28;20021;-77
2022/09/18 03:19:56;;;;;;;18.90;9.13;;;;;;;;;;5051867;28;20497;-78
2022/09/18 03:22:22;;;;;;;24.80;9.40;;;;;;;;;;5052938;28;20039;-76
2022/09/18 03:24:48;;;;;;;35.70;10.75;;;;;;;;;;5075718;22;20036;-76
2022/09/18 03:27:15;;;;;;;44.13;18.20;;;;;;;;;;5052850;28;20029;-75
2022/09/18 03:29:41;;;;;;;22.48;8.45;;;;;;;;;;5053677;28;20024;-75
2022/09/18 03:32:07;;;;;;;34.35;13.68;;;;;;;;;;5051834;28;20025;-75
2022/09/18 03:34:34;;;;;;;21.75;8.93;;;;;;;;;;5052779;28;20479;-75
2022/09/18 03:37:00;;;;;;;23.77;8.63;;;;;;;;;;5052894;28;20104;-75
2022/09/18 03:39:26;;;;;;;19.20;8.40;;;;;;;;;;5052300;28;20025;-74
2022/09/18 03:41:51;;;;;;;30.50;10.98;;;;;;;;;;5053036;28;20021;-74
2022/09/18 03:44:17;;;;;;;29.65;10.60;;;;;;;;;;5052985;28;20100;-75
2022/09/18 04:15:18;;;;;;;25.42;6.20;;;;;;;;;;5295591;22;20040;-74
2022/09/18 04:17:44;;;;;;;19.23;5.30;;;;;;;;;;5075899;28;20112;-74
2022/09/18 04:20:10;;;;;;;18.27;4.70;;;;;;;;;;5072192;28;20105;-75
2022/09/18 04:22:36;;;;;;;18.15;4.63;;;;;;;;;;5070407;28;20552;-75
2022/09/18 04:25:03;;;;;;;22.67;4.38;;;;;;;;;;5071738;28;20501;-74
2022/09/18 04:27:29;;;;;;;19.00;4.32;;;;;;;;;;5069969;28;20029;-75
2022/09/18 04:30:14;;;;;;;;;;;;;;;;;;;;;
2022/09/18 04:33:14;;;;;;;14.02;4.05;;;;;;;;;;5082847;28;20092;-81
2022/09/18 04:36:12;;;;;;;19.73;4.28;;;;;;;;;;5072570;28;20516;-81
2022/09/18 04:38:48;;;;;;;13.75;4.18;;;;;;;;;;5067694;28;20028;-81
2022/09/18 04:41:44;;;;;;;7.97;3.38;;;;;;;;;;5083270;28;20047;-81
2022/09/18 04:44:19;;;;;;;19.27;3.63;;;;;;;;;;5081310;28;20036;-81
2022/09/18 04:46:57;;;;;;;17.67;4.40;;;;;;;;;;5081298;28;20029;-82
2022/09/18 04:49:26;;;;;;;12.52;4.55;;;;;;;;;;5082459;28;20039;-81
2022/09/18 04:52:31;;;;;;;20.85;4.70;;;;;;;;;;5083862;28;20819;-82
2022/09/18 04:54:58;;;;;;;11.32;4.70;;;;;;;;;;5084975;28;20070;-81
2022/09/18 04:57:32;;;;;;;17.02;5.60;;;;;;;;;;5082382;28;20537;-81
2022/09/18 05:02:54;;;;;;;20.75;5.47;;;;;;;;;;5050453;28;20025;-80
2022/09/18 05:05:42;;;;;;;26.40;7.13;;;;;;;;;;5084245;28;20092;-81
2022/09/18 05:08:36;;;;;;;23.05;4.93;;;;;;;;;;5082990;28;20097;-81
2022/09/18 05:11:13;;;;;;;17.92;4.35;;;;;;;;;;5082146;28;20242;-80
2022/09/18 05:13:42;;;;;;;25.92;7.72;;;;;;;;;;5082432;28;20028;-80
2022/09/18 05:16:45;;;;;;;;;;;;;;;;;;;;;
2022/09/18 05:19:27;;;;;;;23.85;5.07;;;;;;;;;;5079562;28;20128;-80
2022/09/18 05:21:53;;;;;;;;;;;;;;;;;;5077960;28;20111;-80
2022/09/18 05:24:24;;;;;;;17.08;3.70;;;;;;;;;;5079391;28;19932;-80
2022/09/18 05:27:06;;;;;;;;;;;;;;;;;;;;;
2022/09/18 05:29:42;;;;;;;31.10;6.53;;;;;;;;;;5079624;28;20072;-79
2022/09/18 05:32:42;;;;;;;20.33;3.50;;;;;;;;;;5079358;28;20032;-80
2022/09/18 05:35:03;;;;;;;15.75;3.15;;;;;;;;;;5065583;28;20441;-80
2022/09/18 05:37:35;;;;;;;11.30;2.90;;;;;;;;;;5078194;28;20039;-80
2022/09/18 05:40:03;;;;;;;17.60;3.38;;;;;;;;;;5069854;28;20024;-80
2022/09/18 05:42:30;;;;;;;24.40;4.40;;;;;;;;;;5086420;28;20116;-82
2022/09/18 05:44:56;;;;;;;13.40;2.70;;;;;;;;;;5086960;28;20429;-79
2022/09/18 05:47:32;;;;;;;8.52;2.33;;;;;;;;;;5082227;28;20402;-80
2022/09/18 05:50:16;;;;;;;13.88;2.97;;;;;;;;;;5065243;28;20025;-79
2022/09/18 05:52:51;;;;;;;12.65;2.40;;;;;;;;;;5080679;28;20033;-81
2022/09/18 05:58:32;;;;;;;15.35;3.30;;;;;;;;;;5083911;28;20032;-81
2022/09/18 06:01:16;;;;;;;14.32;2.55;;;;;;;;;;5083687;28;20043;-78
2022/09/18 06:07:11;;;;;;;11.05;2.42;;;;;;;;;;5078398;28;20401;-79
2022/09/18 06:12:16;;;;;;;13.80;2.28;;;;;;;;;;5084900;28;19980;-77
2022/09/18 06:14:42;;;;;;;10.70;2.00;;;;;;;;;;5067319;28;20108;-79
2022/09/18 06:17:08;;;;;;;10.98;2.35;;;;;;;;;;5064711;28;20025;-80
2022/09/18 06:19:37;;;;;;;24.48;7.63;;;;;;;;;;5050875;28;20483;-78
2022/09/18 06:22:10;;;;;;;11.93;2.40;;;;;;;;;;5084388;28;20035;-79
2022/09/18 06:24:36;;;;;;;25.80;8.75;;;;;;;;;;5099852;22;20100;-72
2022/09/18 06:27:02;;;;;;;12.98;3.90;;;;;;;;;;5117020;28;20024;-75
2022/09/18 06:29:28;;;;;;;13.27;3.38;;;;;;;;;;5116884;28;20023;-74
2022/09/18 06:31:54;;;;;;;7.80;1.70;;;;;;;;;;5117695;28;20027;-74
2022/09/18 06:34:20;;;;;;;9.77;2.22;;;;;;;;;;5105875;28;20370;-75
2022/09/18 06:36:46;;;;;;;9.40;2.13;;;;;;;;;;5096815;28;20027;-75
2022/09/18 06:39:12;;;;;;;10.20;2.05;;;;;;;;;;5096178;28;20077;-74
2022/09/18 06:41:38;;;;;;;9.73;2.38;;;;;;;;;;5079133;28;20024;-74
2022/09/18 06:46:40;;;;;;;6.70;1.73;;;;;;;;;;5135227;22;20055;-75
2022/09/18 06:49:06;;;;;;;7.05;1.30;;;;;;;;;;5095066;28;20020;-74
2022/09/18 06:51:32;;;;;;;8.93;2.08;;;;;;;;;;5095395;28;20073;-74
2022/09/18 06:53:58;;;;;;;14.27;2.17;;;;;;;;;;5093672;28;20477;-74
2022/09/18 06:56:24;;;;;;;7.43;1.55;;;;;;;;;;5074848;28;20036;-74
2022/09/18 06:58:53;;;;;;;11.85;2.60;;;;;;;;;;5077455;28;20028;-74
2022/09/18 07:01:19;;;;;;;6.50;1.83;;;;;;;;;;5090616;22;20040;-76
2022/09/18 07:03:48;;;;;;;11.90;2.08;;;;;;;;;;5073399;28;20029;-75
2022/09/18 07:06:14;;;;;;;5.40;1.40;;;;;;;;;;5073130;28;20543;-73
2022/09/18 07:08:40;;;;;;;5.85;1.42;;;;;;;;;;5070885;28;20103;-73
2022/09/18 07:11:06;;;;;;;9.88;2.17;;;;;;;;;;5072694;28;20107;-74
2022/09/18 07:13:36;;;;;;;12.65;1.95;;;;;;;;;;5072892;28;20028;-73
2022/09/18 07:16:02;;;;;;;8.63;2.03;;;;;;;;;;5071022;28;20170;-75
2022/09/18 07:18:28;;;;;;;10.77;2.53;;;;;;;;;;5068928;28;20039;-72
2022/09/18 07:20:54;;;;;;;9.48;2.05;;;;;;;;;;5070568;28;20033;-76
2022/09/18 07:23:20;;;;;;;6.00;1.58;;;;;;;;;;5069812;28;20029;-77
2022/09/18 07:25:46;;;;;;;7.00;1.15;;;;;;;;;;5071513;28;20459;-74
2022/09/18 07:28:12;;;;;;;4.35;1.38;;;;;;;;;;5071542;28;20425;-77
2022/09/18 07:30:39;;;;;;;7.38;2.00;;;;;;;;;;5075541;28;20043;-75
2022/09/18 07:33:06;;;;;;;10.57;2.15;;;;;;;;;;5074860;28;20027;-70
2022/09/18 07:35:32;;;;;;;6.20;1.83;;;;;;;;;;5075090;28;20028;-71
2022/09/18 07:38:02;;;;;;;9.80;2.55;;;;;;;;;;5075106;28;20050;-76
2022/09/18 07:40:28;;;;;;;6.43;1.95;;;;;;;;;;5076651;28;20024;-75
2022/09/18 07:42:58;;;;;;;5.30;1.85;;;;;;;;;;5071515;28;20112;-74
2022/09/18 07:45:24;;;;;;;7.03;2.60;;;;;;;;;;5071683;28;20088;-73
2022/09/18 07:47:50;;;;;;;12.23;2.97;;;;;;;;;;5070296;28;20024;-74
2022/09/18 07:50:16;;;;;;;9.93;2.17;;;;;;;;;;5071386;28;20047;-75
2022/09/18 07:52:49;;;;;;;11.88;2.80;;;;;;;;;;5069815;28;20505;-75
2022/09/18 07:55:15;;;;;;;17.17;6.18;;;;;;;;;;5069973;28;20032;-73
2022/09/18 07:57:41;;;;;;;9.63;2.60;;;;;;;;;;5069013;28;20491;-77
2022/09/18 08:00:09;;;;;;;7.05;1.67;;;;;;;;;;5070101;28;20035;-75
2022/09/18 08:02:35;;;;;;;5.88;2.08;;;;;;;;;;5071861;28;20064;-75
2022/09/18 08:05:01;;;;;;;9.40;2.40;;;;;;;;;;5072433;28;20342;-71
2022/09/18 08:07:27;;;;;;;10.40;1.90;;;;;;;;;;5069231;28;20457;-73
2022/09/18 08:09:53;;;;;;;7.45;1.88;;;;;;;;;;5066904;28;20024;-74
2022/09/18 08:12:19;;;;;;;7.60;1.75;;;;;;;;;;5069241;28;20064;-76
2022/09/18 08:14:45;;;;;;;4.40;1.52;;;;;;;;;;5070600;28;20040;-73
2022/09/18 08:17:12;;;;;;;8.27;2.72;;;;;;;;;;5069995;28;20032;-74
2022/09/18 08:19:38;;;;;;;9.43;2.72;;;;;;;;;;5069857;28;20074;-76
2022/09/18 08:22:04;;;;;;;10.38;2.42;;;;;;;;;;5068754;28;20021;-74
2022/09/18 08:24:30;;;;;;;8.35;2.22;;;;;;;;;;5069900;28;20048;-75
2022/09/18 08:27:02;;;;;;;8.50;2.25;;;;;;;;;;5070094;28;20073;-74
2022/09/18 08:29:28;;;;;;;;;;;;;;;;;;5071317;28;20021;-75
2022/09/18 08:31:54;;;;;;;20.40;7.88;;;;;;;;;;5071900;28;19927;-71
2022/09/18 08:34:20;;;;;;;11.63;3.05;;;;;;;;;;5069798;28;20033;-73
2022/09/18 08:36:46;;;;;;;9.75;1.83;;;;;;;;;;5070123;28;20450;-74
2022/09/18 08:39:12;;;;;;;9.38;2.08;;;;;;;;;;5071055;28;20052;-74
2022/09/18 08:42:04;;;;;;;5.15;2.00;;;;;;;;;;5071689;28;20474;-72
2022/09/18 08:44:32;;;;;;;4.82;1.67;;;;;;;;;;5069408;28;20044;-74
2022/09/18 08:47:04;;;;;;;7.25;1.63;;;;;;;;;;5071305;28;20492;-73
2022/09/18 08:49:30;;;;;;;8.95;1.33;;;;;;;;;;5069529;28;20047;-74
2022/09/18 08:51:59;;;;;;;8.48;2.00;;;;;;;;;;5071142;28;20020;-70
2022/09/18 08:54:47;;;;;;;10.90;4.22;;;;;;;;;;5071188;28;20103;-74
2022/09/18 08:57:25;;;;;;;5.30;1.73;;;;;;;;;;5069490;28;20028;-71
2022/09/18 09:00:01;;;;;;;22.13;10.07;;;;;;;;;;5069428;28;20021;-74
2022/09/18 09:02:33;;;;;;;11.02;3.47;;;;;;;;;;5070085;28;20368;-74
2022/09/18 09:05:02;;;;;;;16.05;4.20;;;;;;;;;;5071110;28;20047;-74
2022/09/18 09:07:35;;;;;;;11.52;2.53;;;;;;;;;;5070369;28;20020;-75
2022/09/18 09:10:13;;;;;;;5.97;1.88;;;;;;;;;;5070961;28;20028;-74
2022/09/18 09:12:48;;;;;;;10.35;3.15;;;;;;;;;;5068425;28;20020;-74
2022/09/18 09:15:20;;;;;;;11.93;2.72;;;;;;;;;;5069040;28;20502;-74
2022/09/18 09:18:22;;;;;;;9.32;2.88;;;;;;;;;;5069920;28;20028;-76
2022/09/18 09:20:52;;;;;;;5.93;2.05;;;;;;;;;;5028813;28;20021;-74
2022/09/18 09:23:21;;;;;;;6.83;2.60;;;;;;;;;;5062028;28;20033;-73
2022/09/18 09:26:06;;;;;;;9.23;2.47;;;;;;;;;;5070581;28;20044;-74
2022/09/18 09:28:31;;;;;;;9.48;1.83;;;;;;;;;;5070162;28;20375;-74
2022/09/18 09:30:59;;;;;;;8.05;1.88;;;;;;;;;;5070586;28;20027;-73
2022/09/18 09:33:45;;;;;;;7.35;1.38;;;;;;;;;;5070858;28;20024;-74
2022/09/18 09:36:16;;;;;;;10.88;2.03;;;;;;;;;;5070262;28;20454;-74
2022/09/18 09:38:42;;;;;;;6.57;1.75;;;;;;;;;;5070053;28;20077;-74
2022/09/18 09:41:15;;;;;;;7.60;1.98;;;;;;;;;;5070518;28;20029;-74
2022/09/18 09:43:44;;;;;;;8.00;1.85;;;;;;;;;;5069456;28;20398;-75
2022/09/18 09:46:30;;;;;;;9.18;2.03;;;;;;;;;;5070286;28;20028;-75
2022/09/18 09:49:00;;;;;;;6.30;1.52;;;;;;;;;;5048486;28;20434;-72
2022/09/18 09:51:30;;;;;;;6.40;1.58;;;;;;;;;;5068959;28;20382;-73
2022/09/18 09:53:58;;;;;;;6.78;1.65;;;;;;;;;;5069432;28;20025;-73
2022/09/18 09:56:31;;;;;;;5.50;1.58;;;;;;;;;;5070583;28;20103;-74
2022/09/18 09:59:18;;;;;;;9.32;1.60;;;;;;;;;;5069920;28;20032;-73
2022/09/18 10:01:52;;;;;;;8.75;1.20;;;;;;;;;;5070383;28;20029;-72
2022/09/18 10:04:25;;;;;;;8.80;1.80;;;;;;;;;;5070354;28;20025;-74
2022/09/18 10:06:51;;;;;;;9.02;1.60;;;;;;;;;;5069103;28;20446;-74
2022/09/18 10:09:36;;;;;;;8.32;1.48;;;;;;;;;;5068208;28;20023;-73
2022/09/18 10:12:05;;;;;;;8.25;1.70;;;;;;;;;;5070098;28;20089;-73
2022/09/18 10:14:33;;;;;;;10.88;1.95;;;;;;;;;;5070185;28;20355;-74
2022/09/18 10:17:01;;;;;;;7.63;1.55;;;;;;;;;;5068650;28;20013;-71
2022/09/18 10:19:36;;;;;;;3.63;1.58;;;;;;;;;;5069625;28;20034;-74
2022/09/18 10:22:04;;;;;;;7.68;2.13;;;;;;;;;;5067587;28;20027;-73
2022/09/18 10:24:49;;;;;;;6.07;1.77;;;;;;;;;;5070376;28;20702;-71
2022/09/18 10:27:15;;;;;;;5.15;1.27;;;;;;;;;;5071108;28;20146;-74
2022/09/18 10:29:41;;;;;;;4.47;1.48;;;;;;;;;;5073633;28;20020;-74
2022/09/18 10:32:11;;;;;;;8.80;1.40;;;;;;;;;;5073623;28;20466;-75
2022/09/18 10:34:49;;;;;;;7.10;2.00;;;;;;;;;;5073720;28;20016;-75
2022/09/18 10:37:18;;;;;;;7.13;1.77;;;;;;;;;;5073065;28;20096;-75
2022/09/18 10:39:49;;;;;;;4.38;1.20;;;;;;;;;;5073548;28;20020;-74
2022/09/18 10:42:17;;;;;;;5.47;2.00;;;;;;;;;;5073518;28;20052;-73
2022/09/18 10:44:48;;;;;;;8.90;2.03;;;;;;;;;;5073314;28;20277;-73
2022/09/18 10:47:20;;;;;;;6.88;1.80;;;;;;;;;;5073392;28;20490;-74
2022/09/18 10:49:50;;;;;;;7.40;1.40;;;;;;;;;;5073293;28;20021;-75
2022/09/18 10:52:30;;;;;;;3.10;1.00;;;;;;;;;;5072205;28;20020;-74
2022/09/18 10:54:57;;;;;;;6.15;1.45;;;;;;;;;;5073384;28;20115;-73
2022/09/18 10:57:26;;;;;;;6.50;1.35;;;;;;;;;;5071512;28;20029;-73
2022/09/18 10:59:52;;;;;;;5.55;1.63;;;;;;;;;;5073066;28;20013;-73
2022/09/18 11:02:20;;;;;;;7.28;1.60;;;;;;;;;;5071877;28;20047;-73
2022/09/18 11:04:47;;;;;;;4.93;1.38;;;;;;;;;;5072980;28;20025;-72
2022/09/18 11:07:13;;;;;;;4.07;1.27;;;;;;;;;;5072638;28;20100;-71
2022/09/18 11:09:40;;;;;;;5.22;1.30;;;;;;;;;;5072723;28;20499;-75
2022/09/18 11:12:15;;;;;;;3.80;0.90;;;;;;;;;;5072126;28;20024;-74
2022/09/18 11:14:43;;;;;;;4.05;1.17;;;;;;;;;;5072954;28;20474;-74
2022/09/18 11:17:23;;;;;;;5.35;0.90;;;;;;;;;;5072450;28;20311;-75
2022/09/18 11:19:51;;;;;;;14.45;2.78;;;;;;;;;;5072620;28;20020;-74
2022/09/18 11:22:30;;;;;;;5.38;2.00;;;;;;;;;;5072580;28;20038;-74
2022/09/18 11:25:14;;;;;;;10.80;3.55;;;;;;;;;;5059351;28;20052;-75
2022/09/18 11:27:54;;;;;;;6.93;1.67;;;;;;;;;;5071996;28;20500;-74
2022/09/18 11:30:28;;;;;;;2.92;0.98;;;;;;;;;;5071556;28;20390;-71
2022/09/18 11:33:01;;;;;;;8.80;4.20;;;;;;;;;;5072538;28;20029;-72
2022/09/18 11:35:28;;;;;;;5.00;1.17;;;;;;;;;;5072902;28;20031;-73
2022/09/18 11:37:56;;;;;;;2.78;0.88;;;;;;;;;;5070730;28;20127;-73
2022/09/18 11:40:24;;;;;;;3.92;0.80;;;;;;;;;;5071209;28;20025;-75
2022/09/18 11:42:51;;;;;;;4.35;1.10;;;;;;;;;;5071495;28;20654;-73
2022/09/18 11:45:17;;;;;;;3.47;0.85;;;;;;;;;;5071639;28;20495;-72
2022/09/18 11:47:47;;;;;;;4.60;1.20;;;;;;;;;;5071590;28;20144;-75
2022/09/18 11:50:21;;;;;;;3.65;0.80;;;;;;;;;;5072172;28;20017;-73
2022/09/18 11:52:52;;;;;;;7.38;2.70;;;;;;;;;;5071911;28;20504;-70
2022/09/18 11:55:39;;;;;;;6.15;1.52;;;;;;;;;;5072590;28;20115;-73
2022/09/18 11:58:10;;;;;;;5.03;1.60;;;;;;;;;;5071577;28;20563;-72
2022/09/18 12:00:40;;;;;;;4.38;1.70;;;;;;;;;;5071810;28;20115;-74
2022/09/18 12:03:20;;;;;;;4.30;1.25;;;;;;;;;;5072003;28;20409;-72
2022/09/18 12:05:51;;;;;;;1.85;0.90;;;;;;;;;;5072787;28;20021;-73
2022/09/18 12:08:23;;;;;;;41.30;20.35;;;;;;;;;;5071314;28;20442;-73
2022/09/18 12:10:52;;;;;;;4.70;1.40;;;;;;;;;;5072047;28;20028;-71
2022/09/18 12:13:32;;;;;;;4.28;1.00;;;;;;;;;;5071946;28;20017;-74
2022/09/18 12:16:21;;;;;;;15.02;7.03;;;;;;;;;;5071994;28;20486;-72
2022/09/18 12:18:53;;;;;;;15.35;6.93;;;;;;;;;;5065974;28;20094;-72
2022/09/18 12:21:22;;;;;;;5.95;1.77;;;;;;;;;;5058752;28;20024;-75
2022/09/18 12:23:48;;;;;;;29.40;11.27;;;;;;;;;;5068636;28;20487;-74
2022/09/18 12:26:14;;;;;;;5.10;2.45;;;;;;;;;;5069827;28;20356;-73
2022/09/18 12:28:59;;;;;;;6.43;2.20;;;;;;;;;;5069215;28;20026;-71
2022/09/18 12:31:30;;;;;;;7.15;1.88;;;;;;;;;;5069718;28;20100;-73
2022/09/18 12:33:56;;;;;;;;;;;;;;;;;;5070362;28;20060;-70
2022/09/18 12:36:32;;;;;;;6.10;1.58;;;;;;;;;;5069519;28;20392;-74
2022/09/18 12:39:17;;;;;;;30.83;12.50;;;;;;;;;;5070096;28;20036;-75
2022/09/18 12:41:56;;;;;;;10.73;3.28;;;;;;;;;;5059135;28;20382;-73
2022/09/18 12:44:34;;;;;;;4.80;1.98;;;;;;;;;;5072171;28;20029;-73
2022/09/18 12:47:10;;;;;;;6.75;1.52;;;;;;;;;;5071525;28;20070;-74
2022/09/18 12:49:58;;;;;;;2.72;1.00;;;;;;;;;;5068207;28;20023;-75
2022/09/18 12:52:43;;;;;;;2.97;0.93;;;;;;;;;;5064640;28;20116;-74
2022/09/18 12:55:17;;;;;;;3.88;1.42;;;;;;;;;;5059776;28;20043;-74
2022/09/18 12:57:54;;;;;;;4.28;0.98;;;;;;;;;;5070691;28;20025;-73
2022/09/18 13:00:21;;;;;;;2.38;0.70;;;;;;;;;;5097424;22;20028;-70
2022/09/18 13:03:06;;;;;;;2.17;0.50;;;;;;;;;;5067918;28;20472;-73
2022/09/18 13:05:37;;;;;;;1.33;0.70;;;;;;;;;;5069412;28;20108;-75
2022/09/18 13:08:11;;;;;;;1.75;0.73;;;;;;;;;;5086501;28;20416;-74
2022/09/18 13:10:45;;;;;;;4.72;1.05;;;;;;;;;;5084381;28;20033;-74
2022/09/18 13:13:11;;;;;;;3.30;0.82;;;;;;;;;;5066099;28;20032;-75
2022/09/18 13:15:40;;;;;;;2.72;1.05;;;;;;;;;;5065302;28;20073;-74
2022/09/18 13:18:16;;;;;;;3.95;1.10;;;;;;;;;;5063585;28;20078;-73
2022/09/18 13:20:44;;;;;;;5.50;1.10;;;;;;;;;;5063227;28;20103;-73
2022/09/18 13:23:20;;;;;;;4.65;1.08;;;;;;;;;;5074208;28;20120;-73
2022/09/18 13:25:48;;;;;;;1.60;0.70;;;;;;;;;;5055307;28;20024;-73
2022/09/18 13:28:15;;;;;;;19.48;9.32;;;;;;;;;;5061924;28;20100;-73
2022/09/18 13:30:42;;;;;;;11.35;5.00;;;;;;;;;;5069944;28;20020;-74
2022/09/18 13:33:22;;;;;;;10.10;3.88;;;;;;;;;;5075718;28;20071;-73
2022/09/18 13:35:56;;;;;;;21.95;11.80;;;;;;;;;;5060545;28;20024;-74
2022/09/18 13:38:23;;;;;;;5.40;1.63;;;;;;;;;;5059447;28;20025;-74
2022/09/18 13:41:07;;;;;;;4.88;1.40;;;;;;;;;;5064734;28;20032;-74
2022/09/18 13:43:40;;;;;;;29.42;13.98;;;;;;;;;;5071318;28;20036;-74
2022/09/18 13:46:08;;;;;;;9.20;3.97;;;;;;;;;;5065809;28;20389;-74
2022/09/18 13:48:34;;;;;;;4.78;1.67;;;;;;;;;;5058693;28;20385;-74
2022/09/18 13:51:02;;;;;;;1.00;0.52;;;;;;;;;;5068695;28;20091;-74
2022/09/18 13:53:32;;;;;;;5.65;1.88;;;;;;;;;;5063425;28;20483;-75
2022/09/18 13:55:59;;;;;;;6.68;2.88;;;;;;;;;;5068521;28;20443;-74
2022/09/18 13:58:32;;;;;;;2.70;0.85;;;;;;;;;;5053261;28;20033;-74
2022/09/18 14:00:59;;;;;;;3.28;0.88;;;;;;;;;;5069109;28;20032;-73
2022/09/18 14:03:25;;;;;;;3.00;0.90;;;;;;;;;;5067925;28;20063;-73
2022/09/18 14:05:51;;;;;;;14.57;6.47;;;;;;;;;;5070483;28;20088;-74
2022/09/18 14:08:21;;;;;;;8.27;3.97;;;;;;;;;;5064372;28;20044;-74
2022/09/18 14:10:47;;;;;;;2.22;0.98;;;;;;;;;;5073814;28;20031;-74
2022/09/18 14:13:16;;;;;;;3.28;1.35;;;;;;;;;;5069245;28;20032;-74
2022/09/18 14:15:51;;;;;;;2.05;1.13;;;;;;;;;;5073114;28;20025;-74
2022/09/18 14:18:22;;;;;;;2.20;0.93;;;;;;;;;;5056855;28;20021;-73
2022/09/18 14:20:50;;;;;;;3.87;0.70;;;;;;;;;;5067355;28;20447;-74
2022/09/18 14:23:34;;;;;;;7.20;1.63;;;;;;;;;;5070268;28;20274;-74
2022/09/18 14:26:00;;;;;;;6.90;2.10;;;;;;;;;;5061746;28;20029;-74
2022/09/18 14:28:27;;;;;;;5.72;2.05;;;;;;;;;;5064751;28;20053;-73
2022/09/18 14:31:13;;;;;;;5.40;1.63;;;;;;;;;;5055920;28;20025;-72
2022/09/18 14:33:42;;;;;;;3.92;1.10;;;;;;;;;;5053648;28;20511;-74
2022/09/18 14:36:09;;;;;;;4.35;1.30;;;;;;;;;;5053769;28;20037;-74
2022/09/18 14:38:36;;;;;;;3.42;0.93;;;;;;;;;;5055086;28;20079;-74
2022/09/18 14:41:07;;;;;;;2.03;1.08;;;;;;;;;;5058632;28;20029;-74
2022/09/18 14:43:33;;;;;;;2.60;1.02;;;;;;;;;;5062532;28;20024;-73
2022/09/18 14:45:59;;;;;;;6.00;0.95;;;;;;;;;;5064155;28;20024;-74
2022/09/18 14:48:30;;;;;;;0.57;0.55;;;;;;;;;;5053217;28;20017;-74
2022/09/18 14:51:00;;;;;;;11.40;7.38;;;;;;;;;;5064896;28;20009;-74
2022/09/18 14:53:27;;;;;;;2.88;0.70;;;;;;;;;;5053703;28;20055;-74
2022/09/18 14:56:07;;;;;;;1.70;0.63;;;;;;;;;;5053406;28;20029;-74
2022/09/18 14:58:37;;;;;;;2.15;1.00;;;;;;;;;;5057474;28;20020;-75
2022/09/18 15:01:10;;;;;;;3.60;1.85;;;;;;;;;;5057613;28;20433;-74
2022/09/18 15:03:38;;;;;;;1.95;0.93;;;;;;;;;;5053934;28;20033;-74
2022/09/18 15:06:09;;;;;;;2.78;1.35;;;;;;;;;;5053428;28;20108;-74
2022/09/18 15:08:36;;;;;;;2.20;1.48;;;;;;;;;;5052583;28;20395;-73
2022/09/18 15:11:03;;;;;;;3.55;1.60;;;;;;;;;;5052976;28;20029;-74
2022/09/18 15:13:31;;;;;;;4.65;1.27;;;;;;;;;;5051817;28;20096;-73
2022/09/18 15:16:03;;;;;;;7.07;2.75;;;;;;;;;;5058177;28;20545;-72
2022/09/18 15:18:29;;;;;;;4.78;1.90;;;;;;;;;;5052153;28;20033;-73
2022/09/18 15:20:56;;;;;;;2.10;1.15;;;;;;;;;;5052881;28;20082;-73
2022/09/18 15:23:22;;;;;;;3.47;1.15;;;;;;;;;;5054069;28;20029;-74
2022/09/18 15:25:50;;;;;;;3.58;1.40;;;;;;;;;;5053979;28;20137;-75
2022/09/18 15:28:17;;;;;;;4.63;2.00;;;;;;;;;;5066589;28;20024;-74
2022/09/18 15:30:43;;;;;;;4.15;1.42;;;;;;;;;;5061191;28;20040;-74
2022/09/18 15:33:18;;;;;;;3.83;2.33;;;;;;;;;;5051543;28;20040;-73
2022/09/18 15:35:46;;;;;;;5.68;1.80;;;;;;;;;;5051836;28;20025;-74
2022/09/18 15:38:18;;;;;;;3.33;1.48;;;;;;;;;;5050714;28;20317;-74
2022/09/18 15:40:46;;;;;;;3.72;1.85;;;;;;;;;;5051968;28;20037;-74
2022/09/18 15:43:30;;;;;;;10.10;2.15;;;;;;;;;;5051762;28;20021;-74
2022/09/18 15:46:04;;;;;;;4.55;2.20;;;;;;;;;;5051177;28;20025;-73
2022/09/18 15:48:42;;;;;;;2.40;1.88;;;;;;;;;;5051121;28;20052;-73
2022/09/18 15:51:16;;;;;;;4.22;2.13;;;;;;;;;;5050937;28;20029;-72